createdAt,value
2022-09-05T00:03:05.053Z,27.94
2022-09-05T00:08:22.762Z,27.99
2022-09-05T00:13:30.992Z,27.91
2022-09-05T00:24:17.088Z,27.89
2022-09-05T00:25:14.011Z,27.90
2022-09-05T00:31:08.929Z,27.93
2022-09-05T00:36:09.846Z,27.97
2022-09-05T00:41:13.962Z,27.93
2022-09-05T00:46:22.672Z,27.97
2022-09-05T00:51:39.654Z,27.93
2022-09-05T00:56:54.799Z,27.92
2022-09-05T01:02:07.336Z,27.93
2022-09-05T01:07:47.305Z,27.84
2022-09-05T01:13:22.959Z,27.84
2022-09-05T01:18:39.559Z,27.87
2022-09-05T01:24:04.675Z,27.85
2022-09-05T01:29:19.459Z,27.88
2022-09-05T01:34:39.237Z,27.86
2022-09-05T01:40:16.143Z,27.82
2022-09-05T01:45:40.270Z,27.85
2022-09-05T01:50:58.351Z,27.84
2022-09-05T01:56:16.543Z,27.82
2022-09-05T02:01:32.058Z,27.77
2022-09-05T02:07:20.044Z,27.77
2022-09-05T02:12:40.410Z,27.80
2022-09-05T02:17:50.609Z,27.77
2022-09-05T02:23:40.718Z,27.79
2022-09-05T02:28:56.350Z,27.78
2022-09-05T02:34:04.427Z,27.70
2022-09-05T02:45:07.477Z,27.83
2022-09-05T02:45:11.420Z,27.76
2022-09-05T02:54:12.840Z,27.79
2022-09-05T02:57:42.317Z,27.74
2022-09-05T03:02:25.015Z,27.71
2022-09-05T03:07:46.418Z,27.78
2022-09-05T03:13:02.397Z,27.69
2022-09-05T03:18:31.198Z,27.64
2022-09-05T03:23:35.959Z,27.75
2022-09-05T03:28:55.947Z,27.74
2022-09-05T03:34:22.846Z,27.72
2022-09-05T03:40:00.662Z,27.65
2022-09-05T03:45:29.853Z,27.73
2022-09-05T03:57:04.465Z,27.75
2022-09-05T03:57:18.179Z,27.74
2022-09-05T04:04:03.663Z,27.73
2022-09-05T04:08:26.467Z,27.66
2022-09-05T04:13:17.261Z,27.76
2022-09-05T04:18:33.786Z,27.80
2022-09-05T04:23:48.452Z,27.73
2022-09-05T04:29:16.655Z,27.69
2022-09-05T04:34:36.658Z,27.74
2022-09-05T04:39:38.658Z,27.73
2022-09-05T04:44:46.197Z,27.77
2022-09-05T04:50:06.254Z,27.72
2022-09-05T04:55:16.728Z,27.75
2022-09-05T05:06:00.144Z,27.71
2022-09-05T05:06:15.941Z,27.76
2022-09-05T05:17:54.099Z,27.68
2022-09-05T05:18:10.722Z,27.70
2022-09-05T05:22:31.323Z,27.69
2022-09-05T05:27:50.106Z,27.67
2022-09-05T05:32:54.015Z,27.67
2022-09-05T05:38:32.198Z,27.62
2022-09-05T05:43:44.172Z,27.73
2022-09-05T05:48:57.346Z,27.68
2022-09-05T05:54:24.578Z,27.69
2022-09-05T05:59:38.210Z,27.67
2022-09-05T06:04:55.108Z,27.67
2022-09-05T06:14:50.906Z,27.70
2022-09-05T06:16:07.838Z,27.63
2022-09-05T06:22:09.279Z,27.61
2022-09-05T06:26:52.470Z,27.68
2022-09-05T06:32:17.980Z,27.71
2022-09-05T06:37:58.867Z,27.72
2022-09-05T06:43:00.630Z,27.82
2022-09-05T06:48:35.248Z,27.84
2022-09-05T06:54:24.869Z,27.81
2022-09-05T07:00:04.049Z,27.87
2022-09-05T07:05:44.546Z,27.88
2022-09-05T07:11:17.276Z,27.91
2022-09-05T07:16:47.639Z,27.94
2022-09-05T07:22:47.578Z,27.90
2022-09-05T07:28:26.761Z,27.92
2022-09-05T07:33:22.776Z,27.96
2022-09-05T07:38:32.637Z,27.95
2022-09-05T07:43:50.968Z,27.97
2022-09-05T07:49:01.023Z,27.98
2022-09-05T07:57:00.085Z,28.01
2022-09-05T07:59:35.749Z,28.02
2022-09-05T08:04:41.022Z,28.03
2022-09-05T08:10:06.109Z,28.11
2022-09-05T08:15:23.738Z,28.25
2022-09-05T08:20:44.315Z,28.27
2022-09-05T08:26:30.078Z,28.32
2022-09-05T08:31:41.798Z,28.26
2022-09-05T08:36:50.242Z,28.36
2022-09-05T08:42:10.311Z,28.29
2022-09-05T08:47:18.643Z,28.31
2022-09-05T08:52:51.225Z,28.25
2022-09-05T08:58:00.938Z,28.28
2022-09-05T09:03:38.158Z,28.34
2022-09-05T09:08:56.219Z,28.31
2022-09-05T09:14:31.169Z,28.44
2022-09-05T09:20:10.260Z,28.39
2022-09-05T09:25:21.160Z,28.35
2022-09-05T09:30:31.108Z,28.42
2022-09-05T09:35:59.140Z,28.37
2022-09-05T09:41:39.865Z,28.38
2022-09-05T09:46:51.142Z,28.56
2022-09-05T09:52:22.414Z,28.58
2022-09-05T09:57:46.045Z,28.47
2022-09-05T10:05:18.263Z,28.48
2022-09-05T10:10:47.005Z,28.56
2022-09-05T10:14:54.693Z,28.44
2022-09-05T10:20:12.648Z,28.52
2022-09-05T10:25:24.493Z,28.62
2022-09-05T10:33:24.267Z,28.48
2022-09-05T10:36:17.573Z,28.42
2022-09-05T10:41:30.744Z,28.57
2022-09-05T10:47:00.180Z,28.48
2022-09-05T10:52:18.559Z,28.49
2022-09-05T10:57:24.669Z,28.62
2022-09-05T11:02:36.757Z,28.59
2022-09-05T11:07:53.029Z,28.49
2022-09-05T11:13:11.726Z,28.37
2022-09-05T11:18:56.191Z,28.26
2022-09-05T11:24:21.327Z,28.42
2022-09-05T11:29:36.809Z,28.46
2022-09-05T11:40:00.279Z,28.45
2022-09-05T11:41:05.293Z,28.38
2022-09-05T11:46:14.425Z,28.47
2022-09-05T11:51:16.276Z,28.33
2022-09-05T11:56:51.650Z,28.35
2022-09-05T12:02:23.357Z,28.40
2022-09-05T12:07:46.265Z,28.42
2022-09-05T12:13:17.651Z,28.48
2022-09-05T12:18:33.158Z,28.42
2022-09-05T12:24:49.747Z,28.46
2022-09-05T12:29:36.142Z,28.36
2022-09-05T12:36:12.498Z,28.41
2022-09-05T12:41:36.333Z,28.51
2022-09-05T12:46:20.345Z,28.46
2022-09-05T12:51:45.855Z,28.49
2022-09-05T12:58:53.627Z,28.44
2022-09-05T13:03:14.679Z,28.57
2022-09-05T13:07:58.527Z,28.58
2022-09-05T13:14:54.647Z,28.51
2022-09-05T13:18:41.070Z,28.51
2022-09-05T13:23:58.507Z,28.54
2022-09-05T13:29:13.266Z,28.53
2022-09-05T13:38:30.861Z,28.61
2022-09-05T13:40:10.695Z,28.47
2022-09-05T13:45:18.906Z,28.63
2022-09-05T13:50:53.162Z,28.51
2022-09-05T13:56:03.784Z,28.63
2022-09-05T14:01:45.711Z,28.50
2022-09-05T14:12:44.192Z,28.67
2022-09-05T14:17:58.785Z,28.62
2022-09-05T14:23:07.588Z,28.66
2022-09-05T14:28:15.231Z,28.55
2022-09-05T14:37:55.226Z,28.63
2022-09-05T14:39:23.285Z,28.69
2022-09-05T14:44:49.243Z,28.60
2022-09-05T14:50:00.926Z,28.70
2022-09-05T14:55:20.041Z,28.63
2022-09-05T15:02:43.898Z,28.66
2022-09-05T15:05:50.585Z,28.74
2022-09-05T15:12:17.668Z,28.75
2022-09-05T15:16:20.318Z,28.69
2022-09-05T15:21:33.328Z,28.75
2022-09-05T15:26:48.480Z,28.69
2022-09-05T15:32:14.615Z,28.76
2022-09-05T15:37:31.723Z,28.72
2022-09-05T15:42:37.351Z,28.78
2022-09-05T15:47:47.365Z,28.77
2022-09-05T15:52:54.840Z,28.76
2022-09-05T15:58:05.293Z,28.74
2022-09-05T16:04:47.817Z,28.82
2022-09-05T16:10:42.875Z,28.81
2022-09-05T16:14:29.855Z,28.80
2022-09-05T16:23:19.909Z,28.79
2022-09-05T16:25:20.370Z,28.84
2022-09-05T16:30:34.273Z,28.75
2022-09-05T16:35:45.217Z,28.76
2022-09-05T16:41:12.370Z,28.76
2022-09-05T16:46:29.393Z,28.78
2022-09-05T16:51:38.523Z,28.79
2022-09-05T16:56:49.192Z,28.74
2022-09-05T17:02:10.714Z,28.72
2022-09-05T17:07:30.718Z,28.71
2022-09-05T17:12:35.487Z,28.77
2022-09-05T17:18:22.292Z,28.73
2022-09-05T17:29:07.341Z,28.79
2022-09-05T17:29:25.040Z,28.85
2022-09-05T17:34:18.777Z,28.84
2022-09-05T17:39:44.238Z,28.76
2022-09-05T17:45:00.175Z,28.75
2022-09-05T17:50:20.782Z,28.69
2022-09-05T17:55:37.960Z,28.68
2022-09-05T18:00:47.529Z,28.67
2022-09-05T18:06:01.431Z,28.66
2022-09-05T18:11:08.917Z,28.56
2022-09-05T18:17:36.858Z,28.57
2022-09-05T18:22:21.180Z,28.58
2022-09-05T18:28:04.663Z,28.54
2022-09-05T18:33:55.702Z,28.51
2022-09-05T18:38:50.787Z,28.43
2022-09-05T18:44:12.984Z,28.49
2022-09-05T18:50:24.515Z,28.46
2022-09-05T18:56:12.706Z,28.51
2022-09-05T19:00:49.699Z,28.55
2022-09-05T19:06:36.307Z,28.53
2022-09-05T19:11:53.134Z,28.54
2022-09-05T19:17:14.462Z,28.60
2022-09-05T19:23:08.196Z,28.58
2022-09-05T19:31:21.089Z,28.60
2022-09-05T19:37:11.971Z,28.55
2022-09-05T19:41:45.662Z,28.54
2022-09-05T19:47:37.188Z,28.55
2022-09-05T19:49:28.249Z,28.56
2022-09-05T19:54:38.460Z,28.55
2022-09-05T19:59:42.811Z,28.53
2022-09-05T20:04:52.880Z,28.57
2022-09-05T20:09:57.096Z,28.59
2022-09-05T20:15:21.384Z,28.51
2022-09-05T20:20:31.456Z,28.56
2022-09-05T20:25:41.768Z,28.50
2022-09-05T20:30:46.245Z,28.50
2022-09-05T20:39:08.656Z,28.58
2022-09-05T20:43:15.640Z,28.56
2022-09-05T20:50:32.069Z,28.49
2022-09-05T20:54:27.971Z,28.49
2022-09-05T20:57:33.234Z,28.49
2022-09-05T21:02:35.052Z,28.50
2022-09-05T21:07:39.987Z,28.44
2022-09-05T21:12:51.126Z,28.41
2022-09-05T21:17:53.201Z,28.46
2022-09-05T21:22:55.109Z,28.50
2022-09-05T21:28:01.036Z,28.52
2022-09-05T21:33:08.281Z,28.47
2022-09-05T21:38:32.704Z,28.49
2022-09-05T21:47:35.735Z,28.58
2022-09-05T21:49:03.491Z,28.59
2022-09-05T21:59:13.468Z,28.49
2022-09-05T21:59:41.610Z,28.53
2022-09-05T22:04:48.157Z,28.52
2022-09-05T22:09:50.150Z,28.53
2022-09-05T22:14:52.084Z,28.50
2022-09-05T22:19:54.578Z,28.55
2022-09-05T22:25:02.988Z,28.57
2022-09-05T22:30:07.314Z,28.62
2022-09-05T22:35:27.074Z,28.58
2022-09-05T22:40:31.401Z,28.54
2022-09-05T22:45:35.248Z,28.64
2022-09-05T22:50:38.016Z,28.60
2022-09-05T22:55:42.174Z,28.64
2022-09-05T23:00:44.736Z,28.60
2022-09-05T23:05:46.541Z,28.58
2022-09-05T23:10:48.443Z,28.63
2022-09-05T23:15:51.078Z,28.58
2022-09-05T23:20:53.263Z,28.52
2022-09-05T23:26:04.199Z,28.53
2022-09-05T23:31:06.976Z,28.57
2022-09-05T23:36:13.855Z,28.58
2022-09-05T23:41:16.387Z,28.50
2022-09-05T23:46:18.284Z,28.60
2022-09-05T23:51:20.578Z,28.56
2022-09-05T23:56:22.625Z,28.54
